Aviation Digital Data Service (ADDS)

Output produced by TAFs form (1003 UTC 14 February 2016)
found at http://aviationweather.gov/adds/tafs/
 
KDRO 140527Z 1406/1506 36005KT P6SM SCT250 
     FM142100 27015G25KT P6SM SKC 
     FM150200 30010KT P6SM SKC